F/V Mare Liberum — FVHW — position and weather

sailwx.info

Track history (hours):
 
Tides and Currents Weather Stations Pressure Air Temp Water Temp Dewpoint Dewpoint Depression Visibility Wind Speed Wind Dir Waves Ship Positions

F/V Mare Liberum

Last reported at 2017-May-23 22:31 UTC. Time now 2017-May-23 22:30 UTC.
Position N 47°01' W 002°18'.

Length 21 m.

Type: Fishing. MMSI: 227426000.

Date/timePositionNaut miles runAvg speedWind from/ knotsBaromVisibWave heightAir tempDewpointWater temp
2017-May-23 22:31N 47°01' W 002°18'0 0.0
2017-May-23 22:00N 47°01' W 002°18'0 0.0
2017-May-23 21:30N 47°01' W 002°18'0 0.0
2017-May-23 21:01N 47°01' W 002°18'0 0.0
2017-May-23 20:28N 47°01' W 002°18'0 0.0
2017-May-23 20:01N 47°01' W 002°18'0 0.0
2017-May-23 19:31N 47°01' W 002°18'0 0.0
2017-May-23 19:01N 47°01' W 002°18'0 0.0
2017-May-23 18:31N 47°01' W 002°18'0 0.0
2017-May-23 18:00N 47°01' W 002°18'0 0.0
2017-May-23 17:29N 47°01' W 002°18'0 0.0
2017-May-23 16:55N 47°01' W 002°18'0 0.0
2017-May-23 16:31N 47°01' W 002°18'0 0.0
2017-May-23 16:00N 47°01' W 002°18'0 0.0
2017-May-23 15:28N 47°01' W 002°18'0 0.0
2017-May-23 15:00N 47°01' W 002°18'0 0.3
2017-May-23 14:29N 47°02' W 002°18'0 0.1
2017-May-23 12:09N 47°02' W 002°18'0 3.3
2017-May-23 12:00N 47°02' W 002°18'31 9.3
2017-May-23 08:38N 46°47' W 002°58'1 9.0
2017-May-23 08:30N 46°46' W 002°59'5 8.8
2017-May-23 07:59N 46°44' W 003°05'4 8.7
2017-May-23 07:29N 46°42' W 003°11'4 8.7
2017-May-23 07:00N 46°40' W 003°16'7 8.4
2017-May-23 06:10N 46°36' W 003°25'15 8.3
2017-May-23 04:24N 46°29' W 003°43'12 8.4
2017-May-23 03:00N 46°23' W 003°58'9 0.9
2017-May-22 17:43N 46°17' W 004°08'0 0.1
2017-May-22 17:29N 46°17' W 004°08'0 0.1
2017-May-22 16:39N 46°17' W 004°08'  
2017-May-17 03:31N 46°11' W 004°05'0 0.2
2017-May-17 03:26N 46°11' W 004°05'0 0.1
2017-May-16 23:32N 46°11' W 004°05'  
Track history (hours):
 
Tides and Currents Weather Stations Pressure Air Temp Water Temp Dewpoint Dewpoint Depression Visibility Wind Speed Wind Dir Waves Ship Positions

F/V Mare Liberum

Last reported at 2017-May-23 22:31 UTC. Time now 2017-May-23 22:30 UTC.
Position N 47°01' W 002°18'.

Length 21 m.

Type: Fishing. MMSI: 227426000.

Date/timePositionNaut miles runAvg speedWind from/ knotsBaromVisibWave heightAir tempDewpointWater temp
2017-May-23 22:31N 47°01' W 002°18'0 0.0
2017-May-23 22:00N 47°01' W 002°18'0 0.0
2017-May-23 21:30N 47°01' W 002°18'0 0.0
2017-May-23 21:01N 47°01' W 002°18'0 0.0
2017-May-23 20:28N 47°01' W 002°18'0 0.0
2017-May-23 20:01N 47°01' W 002°18'0 0.0
2017-May-23 19:31N 47°01' W 002°18'0 0.0
2017-May-23 19:01N 47°01' W 002°18'0 0.0
2017-May-23 18:31N 47°01' W 002°18'0 0.0
2017-May-23 18:00N 47°01' W 002°18'0 0.0
2017-May-23 17:29N 47°01' W 002°18'0 0.0
2017-May-23 16:55N 47°01' W 002°18'0 0.0
2017-May-23 16:31N 47°01' W 002°18'0 0.0
2017-May-23 16:00N 47°01' W 002°18'0 0.0
2017-May-23 15:28N 47°01' W 002°18'0 0.0
2017-May-23 15:00N 47°01' W 002°18'0 0.3
2017-May-23 14:29N 47°02' W 002°18'0 0.1
2017-May-23 12:09N 47°02' W 002°18'0 3.3
2017-May-23 12:00N 47°02' W 002°18'31 9.3
2017-May-23 08:38N 46°47' W 002°58'1 9.0
2017-May-23 08:30N 46°46' W 002°59'5 8.8
2017-May-23 07:59N 46°44' W 003°05'4 8.7
2017-May-23 07:29N 46°42' W 003°11'4 8.7
2017-May-23 07:00N 46°40' W 003°16'7 8.4
2017-May-23 06:10N 46°36' W 003°25'15 8.3
2017-May-23 04:24N 46°29' W 003°43'12 8.4
2017-May-23 03:00N 46°23' W 003°58'9 0.9
2017-May-22 17:43N 46°17' W 004°08'0 0.1
2017-May-22 17:29N 46°17' W 004°08'0 0.1
2017-May-22 16:39N 46°17' W 004°08'  
2017-May-17 03:31N 46°11' W 004°05'0 0.2
2017-May-17 03:26N 46°11' W 004°05'0 0.1
2017-May-16 23:32N 46°11' W 004°05'  

Dump ship's entire track history